createdAt,value
2022-09-17T00:01:23.069Z,0.63
2022-09-17T00:03:52.627Z,0.60
2022-09-17T00:06:19.621Z,0.80
2022-09-17T00:08:46.268Z,0.50
2022-09-17T00:11:18.320Z,0.65
2022-09-17T00:13:45.154Z,0.50
2022-09-17T00:16:12.270Z,0.60
2022-09-17T00:18:41.886Z,0.60
2022-09-17T00:21:17.122Z,0.68
2022-09-17T00:23:43.798Z,0.47
2022-09-17T00:26:10.416Z,0.60
2022-09-17T00:28:37.066Z,0.88
2022-09-17T00:31:10.043Z,0.80
2022-09-17T00:36:04.483Z,0.75
2022-09-17T00:38:31.307Z,0.65
2022-09-17T00:40:57.936Z,0.80
2022-09-17T00:43:52.941Z,0.60
2022-09-17T00:46:33.640Z,0.73
2022-09-17T00:49:04.822Z,0.90
2022-09-17T00:51:35.869Z,0.63
2022-09-17T00:54:04.355Z,0.63
2022-09-17T00:56:33.343Z,0.77
2022-09-17T00:59:00.713Z,0.60
2022-09-17T01:01:27.377Z,0.70
2022-09-17T01:03:54.074Z,1.00
2022-09-17T01:06:44.289Z,0.70
2022-09-17T01:09:15.655Z,0.68
2022-09-17T01:12:09.449Z,0.98
2022-09-17T01:14:39.283Z,0.80
2022-09-17T01:17:27.557Z,0.80
2022-09-17T01:19:54.071Z,1.38
2022-09-17T01:22:34.471Z,0.90
2022-09-17T01:25:25.199Z,0.85
2022-09-17T01:27:55.135Z,0.70
2022-09-17T01:30:43.862Z,0.70
2022-09-17T01:33:15.254Z,0.98
2022-09-17T01:36:00.078Z,0.90
2022-09-17T01:38:50.571Z,0.68
2022-09-17T01:41:23.770Z,0.95
2022-09-17T01:43:55.414Z,1.08
2022-09-17T01:46:30.376Z,0.90
2022-09-17T01:48:59.434Z,2.75
2022-09-17T01:51:27.690Z,0.88
2022-09-17T01:54:23.727Z,0.77
2022-09-17T01:57:14.134Z,1.00
2022-09-17T01:59:44.400Z,0.90
2022-09-17T02:02:16.607Z,1.13
2022-09-17T02:05:01.979Z,1.00
2022-09-17T02:07:28.568Z,0.75
2022-09-17T02:10:04.166Z,0.98
2022-09-17T02:12:33.710Z,0.93
2022-09-17T02:15:02.062Z,1.23
2022-09-17T02:17:40.430Z,1.00
2022-09-17T02:20:07.640Z,1.30
2022-09-17T02:22:39.909Z,1.00
2022-09-17T02:25:20.771Z,1.10
2022-09-17T02:28:06.235Z,0.95
2022-09-17T02:30:32.864Z,1.13
2022-09-17T02:33:00.663Z,1.15
2022-09-17T02:35:27.303Z,1.30
2022-09-17T02:37:54.017Z,0.98
2022-09-17T02:40:20.869Z,0.93
2022-09-17T02:43:21.843Z,1.23
2022-09-17T02:46:09.180Z,1.63
2022-09-17T02:49:15.486Z,0.88
2022-09-17T02:51:53.982Z,1.20
2022-09-17T02:54:27.071Z,0.95
2022-09-17T02:59:59.356Z,1.08
2022-09-17T03:02:34.119Z,1.17
2022-09-17T03:05:00.778Z,0.80
2022-09-17T03:07:29.216Z,1.02
2022-09-17T03:09:55.807Z,0.98
2022-09-17T03:12:24.880Z,0.88
2022-09-17T03:14:51.479Z,1.00
2022-09-17T03:17:18.040Z,0.80
2022-09-17T03:19:44.779Z,1.05
2022-09-17T03:22:12.624Z,1.20
2022-09-17T03:24:39.280Z,1.00
2022-09-17T03:27:05.945Z,1.20
2022-09-17T03:29:33.327Z,1.17
2022-09-17T03:32:01.051Z,1.67
2022-09-17T03:34:27.648Z,1.20
2022-09-17T03:36:54.264Z,1.40
2022-09-17T03:39:20.874Z,1.25
2022-09-17T03:41:47.509Z,0.90
2022-09-17T03:44:15.471Z,1.13
2022-09-17T03:46:42.626Z,1.10
2022-09-17T03:49:09.603Z,1.42
2022-09-17T03:51:36.222Z,1.42
2022-09-17T03:54:03.483Z,1.00
2022-09-17T03:56:30.119Z,1.00
2022-09-17T03:59:01.113Z,1.40
2022-09-17T04:01:28.368Z,1.10
2022-09-17T04:03:55.360Z,1.42
2022-09-17T04:06:22.030Z,1.48
2022-09-17T04:08:48.634Z,1.42
2022-09-17T04:11:15.294Z,1.25
2022-09-17T04:13:41.904Z,1.40
2022-09-17T04:16:08.585Z,1.63
2022-09-17T04:18:35.231Z,2.28
2022-09-17T04:21:01.899Z,1.55
2022-09-17T04:23:28.511Z,1.20
2022-09-17T04:25:55.183Z,1.02
2022-09-17T04:28:21.763Z,1.25
2022-09-17T04:30:49.285Z,1.23
2022-09-17T04:33:15.906Z,1.17
2022-09-17T04:35:43.593Z,1.30
2022-09-17T04:38:10.254Z,1.10
2022-09-17T04:40:37.040Z,1.20
2022-09-17T04:43:04.235Z,1.10
2022-09-17T04:45:33.504Z,1.55
2022-09-17T04:48:00.345Z,1.60
2022-09-17T04:50:26.953Z,1.30
2022-09-17T04:52:53.517Z,1.45
2022-09-17T04:55:20.157Z,1.38
2022-09-17T04:57:51.486Z,1.60
2022-09-17T05:00:19.024Z,1.30
2022-09-17T05:02:47.053Z,1.50
2022-09-17T05:05:14.354Z,1.40
2022-09-17T05:07:41.336Z,1.45
2022-09-17T05:10:08.913Z,1.40
2022-09-17T05:12:35.693Z,1.17
2022-09-17T05:15:02.586Z,1.65
2022-09-17T05:17:29.182Z,1.67
2022-09-17T05:19:55.791Z,1.30
2022-09-17T05:22:22.376Z,1.45
2022-09-17T05:24:49.059Z,1.45
2022-09-17T05:27:15.655Z,1.13
2022-09-17T05:29:42.392Z,1.38
2022-09-17T05:32:08.946Z,1.33
2022-09-17T05:34:35.774Z,1.60
2022-09-17T05:37:02.390Z,1.42
2022-09-17T05:39:29.016Z,1.60
2022-09-17T05:41:55.796Z,1.30
2022-09-17T05:44:23.753Z,1.50
2022-09-17T05:46:53.111Z,1.55
2022-09-17T05:49:19.787Z,1.38
2022-09-17T05:51:46.371Z,1.58
2022-09-17T05:54:12.992Z,1.50
2022-09-17T05:56:39.599Z,2.05
2022-09-17T05:59:06.198Z,1.45
2022-09-17T06:01:32.860Z,1.60
2022-09-17T06:03:59.565Z,1.75
2022-09-17T06:06:29.783Z,1.70
2022-09-17T06:08:59.526Z,1.48
2022-09-17T06:11:26.115Z,1.40
2022-09-17T06:13:53.894Z,1.35
2022-09-17T06:16:21.711Z,2.22
2022-09-17T06:18:50.286Z,1.42
2022-09-17T06:21:19.711Z,1.65
2022-09-17T06:23:46.469Z,1.42
2022-09-17T06:26:13.114Z,1.83
2022-09-17T06:28:41.823Z,1.70
2022-09-17T06:31:09.584Z,1.42
2022-09-17T06:33:36.616Z,1.60
2022-09-17T06:36:13.060Z,1.65
2022-09-17T06:38:40.604Z,1.27
2022-09-17T06:41:07.262Z,1.52
2022-09-17T06:43:34.117Z,1.80
2022-09-17T06:46:02.370Z,1.83
2022-09-17T06:48:30.505Z,1.40
2022-09-17T06:51:02.276Z,1.20
2022-09-17T06:53:29.853Z,1.52
2022-09-17T06:56:05.166Z,1.30
2022-09-17T06:58:33.485Z,1.67
2022-09-17T07:01:01.427Z,1.35
2022-09-17T07:03:28.984Z,1.65
2022-09-17T07:05:55.678Z,1.90
2022-09-17T07:08:22.357Z,1.45
2022-09-17T07:10:49.124Z,1.85
2022-09-17T07:13:15.899Z,1.38
2022-09-17T07:15:42.611Z,1.60
2022-09-17T07:18:10.230Z,1.60
2022-09-17T07:20:37.150Z,1.85
2022-09-17T07:23:03.787Z,1.60
2022-09-17T07:25:30.487Z,2.00
2022-09-17T07:27:57.105Z,2.00
2022-09-17T07:30:23.998Z,2.17
2022-09-17T07:32:50.599Z,2.83
2022-09-17T07:35:17.738Z,2.10
2022-09-17T07:37:44.367Z,2.80
2022-09-17T07:40:11.087Z,2.38
2022-09-17T07:42:37.693Z,2.63
2022-09-17T07:45:04.558Z,3.08
2022-09-17T07:47:31.188Z,3.15
2022-09-17T07:49:57.828Z,2.75
2022-09-17T07:52:24.799Z,3.00
2022-09-17T07:54:51.423Z,2.10
2022-09-17T07:57:18.351Z,2.40
2022-09-17T07:59:45.399Z,2.80
2022-09-17T08:02:13.810Z,3.25
2022-09-17T08:04:43.346Z,2.90
2022-09-17T08:07:13.604Z,2.88
2022-09-17T08:09:40.255Z,2.58
2022-09-17T08:12:07.315Z,1.85
2022-09-17T08:14:34.021Z,2.72
2022-09-17T08:17:00.667Z,2.75
2022-09-17T08:19:31.266Z,2.47
2022-09-17T08:21:57.846Z,2.30
2022-09-17T08:24:24.540Z,2.50
2022-09-17T08:26:51.127Z,2.22
2022-09-17T08:29:18.194Z,3.85
2022-09-17T08:31:45.360Z,2.35
2022-09-17T08:34:12.143Z,2.28
2022-09-17T08:36:38.918Z,2.65
2022-09-17T08:39:05.625Z,2.22
2022-09-17T08:41:33.283Z,2.58
2022-09-17T08:44:18.767Z,2.13
2022-09-17T08:46:49.373Z,2.45
2022-09-17T08:49:22.015Z,2.15
2022-09-17T08:51:59.680Z,2.70
2022-09-17T08:54:35.361Z,2.05
2022-09-17T08:57:30.159Z,2.20
2022-09-17T08:59:59.518Z,2.78
2022-09-17T09:02:41.307Z,2.88
2022-09-17T09:05:17.027Z,2.25
2022-09-17T09:07:47.422Z,1.88
2022-09-17T09:10:25.000Z,2.65
2022-09-17T09:12:52.233Z,1.98
2022-09-17T09:15:27.442Z,2.05
2022-09-17T09:17:54.360Z,1.65
2022-09-17T09:20:47.716Z,2.20
2022-09-17T09:23:53.254Z,2.00
2022-09-17T09:26:22.096Z,1.52
2022-09-17T09:28:51.576Z,1.73
2022-09-17T09:31:25.015Z,2.28
2022-09-17T09:33:51.739Z,2.08
2022-09-17T09:36:21.891Z,1.98
2022-09-17T09:38:57.905Z,2.47
2022-09-17T09:41:28.934Z,1.83
2022-09-17T09:44:04.994Z,1.95
2022-09-17T09:46:57.851Z,1.77
2022-09-17T09:49:27.365Z,1.83
2022-09-17T09:52:15.645Z,1.63
2022-09-17T09:55:08.098Z,1.33
2022-09-17T09:57:48.746Z,1.75
2022-09-17T10:00:38.880Z,1.40
2022-09-17T10:03:23.452Z,1.98
2022-09-17T10:05:57.644Z,1.30
2022-09-17T10:08:24.971Z,1.67
2022-09-17T10:10:56.582Z,1.88
2022-09-17T10:13:23.384Z,1.70
2022-09-17T10:15:50.186Z,1.25
2022-09-17T10:18:19.177Z,1.70
2022-09-17T10:21:34.134Z,1.30
2022-09-17T10:24:04.602Z,1.60
2022-09-17T10:26:32.799Z,2.42
2022-09-17T10:29:00.780Z,2.35
2022-09-17T10:31:27.518Z,2.10
2022-09-17T10:34:03.288Z,1.77
2022-09-17T10:36:41.683Z,1.95
2022-09-17T10:39:27.618Z,1.40
2022-09-17T10:42:01.407Z,1.27
2022-09-17T10:44:33.586Z,1.50
2022-09-17T10:47:30.014Z,2.00
2022-09-17T10:50:03.867Z,2.13
2022-09-17T10:52:38.937Z,1.83
2022-09-17T10:55:14.428Z,1.27
2022-09-17T10:57:57.864Z,1.08
2022-09-17T11:00:24.527Z,1.20
2022-09-17T11:03:09.798Z,1.02
2022-09-17T11:05:39.348Z,2.00
2022-09-17T11:08:35.886Z,1.50
2022-09-17T11:11:18.321Z,1.38
2022-09-17T11:13:51.687Z,1.23
2022-09-17T11:16:33.578Z,1.10
2022-09-17T11:19:18.263Z,1.25
2022-09-17T11:22:06.840Z,0.80
2022-09-17T11:24:57.818Z,1.40
2022-09-17T11:27:47.952Z,1.05
2022-09-17T11:30:18.744Z,1.02
2022-09-17T11:33:11.621Z,1.05
2022-09-17T11:35:49.123Z,1.00
2022-09-17T11:38:40.708Z,1.35
2022-09-17T11:41:31.904Z,0.70
2022-09-17T11:44:13.474Z,0.80
2022-09-17T11:46:48.460Z,1.00
2022-09-17T11:49:18.263Z,0.75
2022-09-17T11:51:48.183Z,0.90
2022-09-17T11:54:22.946Z,1.15
2022-09-17T11:56:51.429Z,1.10
2022-09-17T11:59:25.954Z,0.85
2022-09-17T12:01:54.023Z,1.02
2022-09-17T12:04:40.797Z,0.90
2022-09-17T12:07:42.662Z,1.10
2022-09-17T12:10:21.086Z,1.40
2022-09-17T12:12:53.543Z,1.23
2022-09-17T12:15:25.079Z,1.35
2022-09-17T12:18:30.555Z,1.67
2022-09-17T12:20:52.948Z,0.93
2022-09-17T12:23:29.192Z,1.20
2022-09-17T12:26:13.861Z,0.82
2022-09-17T12:29:07.532Z,0.80
2022-09-17T12:32:00.035Z,1.67
2022-09-17T12:34:28.728Z,0.82
2022-09-17T12:37:19.872Z,0.80
2022-09-17T12:40:01.989Z,0.90
2022-09-17T12:42:48.102Z,0.90
2022-09-17T12:45:20.605Z,1.30
2022-09-17T12:48:01.077Z,1.55
2022-09-17T12:50:33.696Z,1.40
2022-09-17T12:53:15.937Z,1.13
2022-09-17T12:56:03.843Z,1.33
2022-09-17T12:59:07.011Z,0.60
2022-09-17T13:01:39.439Z,0.47
2022-09-17T13:04:59.586Z,0.60
2022-09-17T13:07:30.453Z,1.35
2022-09-17T13:10:01.798Z,0.60
2022-09-17T13:12:30.762Z,0.60
2022-09-17T13:15:12.987Z,0.80
2022-09-17T13:18:13.233Z,0.60
2022-09-17T13:21:09.387Z,0.60
2022-09-17T13:23:44.864Z,0.63
2022-09-17T13:26:17.313Z,0.60
2022-09-17T13:28:47.488Z,0.50
2022-09-17T13:31:23.588Z,0.20
2022-09-17T13:33:55.293Z,0.50
2022-09-17T13:36:48.334Z,0.60
2022-09-17T13:39:43.990Z,0.73
2022-09-17T13:42:18.978Z,1.52
2022-09-17T13:45:13.189Z,0.50
2022-09-17T13:47:59.094Z,0.70
2022-09-17T13:50:35.204Z,0.70
2022-09-17T13:53:14.282Z,1.13
2022-09-17T13:55:49.400Z,0.35
2022-09-17T13:58:18.967Z,0.50
2022-09-17T14:00:48.845Z,0.60
2022-09-17T14:03:38.527Z,0.60
2022-09-17T14:06:05.004Z,0.47
2022-09-17T14:08:54.648Z,1.00
2022-09-17T14:11:28.372Z,0.63
2022-09-17T14:14:04.301Z,0.70
2022-09-17T14:16:35.523Z,0.65
2022-09-17T14:19:39.739Z,0.70
2022-09-17T14:22:06.767Z,0.77
2022-09-17T14:24:49.886Z,0.90
2022-09-17T14:27:42.862Z,1.55
2022-09-17T14:30:23.204Z,0.98
2022-09-17T14:32:54.930Z,1.00
2022-09-17T14:35:32.628Z,0.80
2022-09-17T14:38:03.707Z,1.00
2022-09-17T14:40:30.834Z,0.88
2022-09-17T14:42:57.975Z,1.10
2022-09-17T14:45:29.694Z,0.90
2022-09-17T14:48:21.626Z,0.80
2022-09-17T14:50:48.258Z,1.60
2022-09-17T14:53:17.825Z,0.88
2022-09-17T14:55:49.264Z,1.65
2022-09-17T14:58:37.014Z,0.65
2022-09-17T15:01:03.643Z,0.80
2022-09-17T15:03:30.243Z,1.30
2022-09-17T15:05:56.871Z,1.00
2022-09-17T15:08:25.378Z,0.77
2022-09-17T15:10:53.121Z,0.70
2022-09-17T15:13:32.262Z,1.00
2022-09-17T15:16:05.210Z,0.77
2022-09-17T15:21:35.229Z,0.90
2022-09-17T15:24:35.369Z,1.10
2022-09-17T15:27:26.869Z,1.00
2022-09-17T15:30:02.541Z,1.27
2022-09-17T15:32:29.130Z,1.38
2022-09-17T15:35:14.446Z,1.73
2022-09-17T15:38:18.914Z,1.52
2022-09-17T15:40:41.703Z,1.33
2022-09-17T15:43:20.741Z,0.98
2022-09-17T15:45:47.505Z,1.27
2022-09-17T15:48:26.472Z,0.90
2022-09-17T15:50:57.284Z,1.15
2022-09-17T15:53:28.547Z,1.73
2022-09-17T15:56:14.650Z,1.35
2022-09-17T15:58:41.162Z,1.20
2022-09-17T16:01:31.645Z,0.80
2022-09-17T16:04:19.363Z,1.17
2022-09-17T16:07:12.052Z,1.13
2022-09-17T16:09:50.057Z,1.35
2022-09-17T16:12:19.059Z,1.08
2022-09-17T16:14:49.836Z,1.20
2022-09-17T16:17:23.887Z,1.65
2022-09-17T16:19:51.262Z,1.10
2022-09-17T16:22:17.872Z,0.90
2022-09-17T16:24:44.426Z,0.82
2022-09-17T16:27:16.296Z,0.80
2022-09-17T16:29:42.865Z,1.05
2022-09-17T16:32:11.279Z,0.80
2022-09-17T16:34:37.852Z,1.17
2022-09-17T16:37:04.495Z,0.80
2022-09-17T16:39:31.147Z,0.98
2022-09-17T16:41:57.731Z,1.40
2022-09-17T16:44:24.313Z,0.95
2022-09-17T16:46:51.022Z,1.10
2022-09-17T16:49:17.674Z,1.20
2022-09-17T16:51:44.247Z,1.33
2022-09-17T16:54:10.965Z,1.35
2022-09-17T16:56:37.577Z,1.70
2022-09-17T16:59:04.198Z,1.48
2022-09-17T17:01:30.937Z,1.25
2022-09-17T17:03:59.658Z,2.88
2022-09-17T17:06:26.534Z,1.95
2022-09-17T17:08:53.167Z,1.70
2022-09-17T17:11:19.769Z,1.30
2022-09-17T17:13:46.478Z,1.55
2022-09-17T17:16:14.407Z,2.05
2022-09-17T17:18:44.353Z,2.15
2022-09-17T17:21:12.448Z,1.58
2022-09-17T17:23:39.060Z,1.40
2022-09-17T17:26:05.752Z,2.30
2022-09-17T17:28:33.693Z,2.72
2022-09-17T17:31:00.817Z,2.65
2022-09-17T17:33:27.608Z,1.60
2022-09-17T17:35:54.168Z,1.10
2022-09-17T17:38:20.800Z,1.67
2022-09-17T17:40:47.580Z,2.33
2022-09-17T17:43:14.291Z,2.83
2022-09-17T17:45:40.855Z,2.72
2022-09-17T17:48:07.595Z,3.15
2022-09-17T17:50:34.155Z,5.63
2022-09-17T17:53:00.756Z,2.25
2022-09-17T17:55:27.322Z,2.05
2022-09-17T17:58:01.155Z,2.33
2022-09-17T18:00:28.116Z,2.33
2022-09-17T18:02:54.746Z,3.45
2022-09-17T18:05:22.106Z,1.70
2022-09-17T18:07:49.733Z,1.48
2022-09-17T18:10:16.743Z,2.00
2022-09-17T18:12:50.499Z,2.08
2022-09-17T18:15:17.428Z,1.80
2022-09-17T18:17:44.093Z,2.45
2022-09-17T18:20:11.103Z,1.73
2022-09-17T18:22:37.692Z,1.83
2022-09-17T18:25:04.533Z,1.90
2022-09-17T18:27:31.128Z,2.17
2022-09-17T18:29:57.928Z,1.60
2022-09-17T18:32:24.572Z,2.10
2022-09-17T18:34:51.710Z,1.45
2022-09-17T18:37:18.443Z,1.60
2022-09-17T18:39:58.060Z,1.98
2022-09-17T18:42:25.725Z,1.63
2022-09-17T18:44:52.278Z,1.65
2022-09-17T18:47:18.884Z,1.60
2022-09-17T18:49:45.571Z,1.85
2022-09-17T18:52:12.416Z,1.30
2022-09-17T18:54:39.006Z,1.60
2022-09-17T18:57:06.590Z,1.90
2022-09-17T18:59:33.284Z,1.70
2022-09-17T19:01:59.982Z,1.10
2022-09-17T19:04:29.438Z,1.67
2022-09-17T19:06:56.116Z,1.95
2022-09-17T19:09:22.706Z,1.55
2022-09-17T19:11:49.264Z,2.50
2022-09-17T19:14:15.942Z,1.88
2022-09-17T19:16:42.531Z,1.70
2022-09-17T19:19:09.991Z,1.60
2022-09-17T19:21:36.562Z,1.67
2022-09-17T19:24:03.727Z,1.27
2022-09-17T19:26:30.494Z,1.15
2022-09-17T19:28:58.884Z,1.00
2022-09-17T19:31:25.729Z,1.17
2022-09-17T19:33:52.773Z,0.80
2022-09-17T19:36:19.916Z,0.80
2022-09-17T19:38:47.087Z,0.55
2022-09-17T19:41:16.026Z,0.60
2022-09-17T19:43:42.817Z,0.40
2022-09-17T19:46:14.455Z,0.65
2022-09-17T19:48:45.477Z,0.50
2022-09-17T19:51:12.869Z,0.60
2022-09-17T19:53:39.461Z,0.55
2022-09-17T19:56:07.500Z,0.50
2022-09-17T19:58:34.098Z,0.60
2022-09-17T20:01:00.742Z,0.90
2022-09-17T20:03:27.403Z,0.68
2022-09-17T20:06:05.758Z,0.50
2022-09-17T20:08:32.716Z,0.95
2022-09-17T20:11:07.427Z,0.80
2022-09-17T20:13:34.116Z,0.70
2022-09-17T20:16:09.048Z,0.75
2022-09-17T20:18:36.298Z,0.80
2022-09-17T20:21:09.295Z,0.80
2022-09-17T20:23:35.910Z,0.80
2022-09-17T20:26:03.374Z,0.77
2022-09-17T20:28:30.024Z,0.88
2022-09-17T20:31:01.607Z,0.90
2022-09-17T20:33:29.018Z,1.17
2022-09-17T20:36:02.921Z,1.10
2022-09-17T20:39:10.735Z,1.95
2022-09-17T20:41:17.004Z,0.93
2022-09-17T20:43:48.384Z,0.60
2022-09-17T20:46:15.921Z,1.00
2022-09-17T20:48:42.861Z,1.00
2022-09-17T20:51:13.112Z,0.80
2022-09-17T20:53:40.253Z,0.70
2022-09-17T20:56:11.112Z,0.70
2022-09-17T20:58:39.913Z,1.02
2022-09-17T21:01:14.895Z,1.00
2022-09-17T21:03:42.646Z,1.08
2022-09-17T21:06:15.932Z,1.08
2022-09-17T21:08:42.549Z,0.80
2022-09-17T21:11:09.172Z,1.10
2022-09-17T21:13:36.621Z,1.17
2022-09-17T21:16:03.486Z,0.90
2022-09-17T21:18:30.369Z,1.17
2022-09-17T21:20:57.017Z,1.60
2022-09-17T21:23:27.478Z,1.02
2022-09-17T21:26:04.867Z,1.20
2022-09-17T21:28:32.729Z,1.30
2022-09-17T21:31:06.981Z,1.65
2022-09-17T21:33:33.649Z,1.60
2022-09-17T21:36:08.460Z,1.60
2022-09-17T21:38:35.122Z,1.10
2022-09-17T21:41:05.267Z,1.60
2022-09-17T21:43:32.193Z,1.38
2022-09-17T21:46:00.368Z,1.70
2022-09-17T21:48:27.318Z,1.38
2022-09-17T21:50:54.201Z,1.65
2022-09-17T21:53:20.878Z,1.95
2022-09-17T21:55:47.455Z,1.90
2022-09-17T21:58:14.122Z,1.52
2022-09-17T22:00:42.973Z,1.50
2022-09-17T22:03:10.440Z,1.52
2022-09-17T22:05:37.322Z,1.60
2022-09-17T22:08:03.929Z,1.30
2022-09-17T22:10:30.500Z,1.48
2022-09-17T22:12:57.132Z,1.33
2022-09-17T22:15:23.700Z,1.80
2022-09-17T22:17:50.274Z,1.20
2022-09-17T22:20:16.995Z,1.30
2022-09-17T22:22:43.669Z,1.77
2022-09-17T22:25:10.668Z,1.48
2022-09-17T22:27:37.286Z,1.30
2022-09-17T22:30:04.183Z,1.20
2022-09-17T22:32:30.789Z,1.50
2022-09-17T22:34:57.500Z,1.10
2022-09-17T22:37:24.140Z,1.33
2022-09-17T22:39:50.775Z,1.80
2022-09-17T22:42:17.347Z,1.27
2022-09-17T22:44:43.999Z,1.30
2022-09-17T22:47:10.714Z,1.00
2022-09-17T22:49:37.355Z,1.20
2022-09-17T22:52:03.939Z,1.50
2022-09-17T22:54:31.046Z,1.17
2022-09-17T22:56:57.626Z,1.13
2022-09-17T22:59:24.231Z,1.38
2022-09-17T23:01:50.841Z,1.38
2022-09-17T23:04:17.491Z,1.25
2022-09-17T23:06:44.082Z,1.40
2022-09-17T23:09:12.744Z,1.20
2022-09-17T23:11:39.800Z,1.40
2022-09-17T23:14:10.063Z,1.60
2022-09-17T23:16:44.859Z,1.20
2022-09-17T23:19:11.889Z,1.20
2022-09-17T23:21:39.124Z,1.10
2022-09-17T23:24:06.561Z,1.15
2022-09-17T23:26:33.407Z,1.30
2022-09-17T23:29:04.975Z,1.55
2022-09-17T23:31:34.757Z,1.27
2022-09-17T23:34:01.882Z,1.67
2022-09-17T23:36:30.990Z,1.90
2022-09-17T23:38:58.580Z,1.15
2022-09-17T23:41:30.234Z,1.67
2022-09-17T23:43:58.579Z,1.05
2022-09-17T23:46:26.860Z,1.42
2022-09-17T23:48:53.697Z,1.02
2022-09-17T23:51:24.343Z,2.05
2022-09-17T23:53:51.198Z,1.40
2022-09-17T23:56:21.243Z,1.20
2022-09-17T23:58:48.595Z,1.58
